Santa Barbara d'Oeste, Brazil
Current Conditions -  °F | °C
As of 11:00 AM on Thursday 30 Oct 2014 (Local Time) from SBKP Reporting Station
Few Clouds Few Clouds  
Wind Chill: 84°   Ceiling: Unl
Heat Index: 84°   Visibility: 6mi
Dew Point: 57°   Wind: 14mph
Humidity: 40%   Direction: 10°N
Pressure: 29.91"   Gusts: NA
Location:  22.75°S, 47.41°W
Report Text: SBKP 301300Z 01012KT 330V050 9999 FEW030 29/14 Q1013
Loading
Personal Weather Stations






























Interactive Weather Map
Tropical Storm Tracking
New forecast layout! Learn more

10-Day Weather Forecast

Advertisements
Track Severe Weather on mobile